SBI1993 UHHH-UHMA
Flight info
| Callsign | SBI1993 |
|---|---|
| Flight time | N/A |
| Altitude | 35000 |
| Route | TOMSU2U TOMSU N222 ASLUT/K0822F370 N222 BUMAT L771 LUMIR B216 DANUB DANUB1N |
| Aircraft | A320/M-SDE3FGHIRWY/LB1 |
Departure
| Time | N/A |
|---|---|
| Airport | Khabarovsk Novy Airport (UHHH) |
Arrival
| Time | 2026-04-19 21:28 |
|---|---|
| Airport | Ugolny Yuri Ryktheu Airport (UHMA) |
| Time | Latitude | Longitude | Altitude | Speed | Heading |
|---|---|---|---|---|---|
| 2026-04-19 18:04 | 52.56839 | 139.97643 | 35157 ft | 434 kts | 21° |
| 2026-04-19 18:04 | 52.61834 | 140.03275 | 35147 ft | 434 kts | 20° |
| 2026-04-19 18:05 | 52.66786 | 140.08991 | 35146 ft | 438 kts | 22° |
| 2026-04-19 18:05 | 52.71688 | 140.15002 | 35151 ft | 440 kts | 23° |
| 2026-04-19 18:06 | 52.76572 | 140.21054 | 35188 ft | 439 kts | 24° |
| 2026-04-19 18:06 | 52.81461 | 140.27065 | 35183 ft | 438 kts | 23° |
| 2026-04-19 18:07 | 52.88820 | 140.36082 | 35173 ft | 438 kts | 23° |
| 2026-04-19 18:08 | 52.93699 | 140.42085 | 35175 ft | 438 kts | 24° |
| 2026-04-19 18:08 | 52.98598 | 140.48134 | 35216 ft | 438 kts | 25° |
| 2026-04-19 18:09 | 53.03470 | 140.54169 | 35158 ft | 438 kts | 25° |
| 2026-04-19 18:09 | 53.08360 | 140.60250 | 35157 ft | 439 kts | 25° |
| 2026-04-19 18:10 | 53.13274 | 140.66378 | 35157 ft | 440 kts | 25° |
| 2026-04-19 18:10 | 53.18083 | 140.72695 | 35153 ft | 446 kts | 29° |
| 2026-04-19 18:11 | 53.22747 | 140.79610 | 35192 ft | 449 kts | 33° |
| 2026-04-19 18:11 | 53.27367 | 140.86699 | 35181 ft | 449 kts | 32° |
| 2026-04-19 18:12 | 53.31973 | 140.93650 | 35173 ft | 448 kts | 32° |
| 2026-04-19 18:12 | 53.36653 | 141.00598 | 35164 ft | 448 kts | 32° |
| 2026-04-19 18:13 | 53.41300 | 141.07505 | 35213 ft | 448 kts | 33° |
| 2026-04-19 18:13 | 53.45956 | 141.14478 | 35156 ft | 447 kts | 33° |
| 2026-04-19 18:14 | 53.50597 | 141.21450 | 35150 ft | 447 kts | 33° |
| 2026-04-19 18:14 | 53.55215 | 141.28414 | 35145 ft | 448 kts | 33° |
| 2026-04-19 18:15 | 53.59858 | 141.35429 | 35143 ft | 448 kts | 33° |
| 2026-04-19 18:15 | 53.64477 | 141.42442 | 35144 ft | 448 kts | 33° |
| 2026-04-19 18:16 | 53.69125 | 141.49529 | 35146 ft | 448 kts | 33° |
| 2026-04-19 18:16 | 53.73733 | 141.56560 | 35150 ft | 448 kts | 33° |
| 2026-04-19 18:17 | 53.78376 | 141.63673 | 35149 ft | 449 kts | 33° |
| 2026-04-19 18:17 | 53.82996 | 141.70788 | 35199 ft | 449 kts | 34° |
| 2026-04-19 18:18 | 53.87593 | 141.77873 | 35178 ft | 448 kts | 34° |
| 2026-04-19 18:18 | 53.92211 | 141.85008 | 35162 ft | 448 kts | 34° |
| 2026-04-19 18:19 | 53.96804 | 141.92118 | 35154 ft | 448 kts | 34° |
| 2026-04-19 18:19 | 54.01411 | 141.99276 | 35151 ft | 448 kts | 35° |
| 2026-04-19 18:20 | 54.06014 | 142.06462 | 35182 ft | 448 kts | 36° |
| 2026-04-19 18:20 | 54.10579 | 142.13621 | 35177 ft | 448 kts | 36° |
| 2026-04-19 18:21 | 54.14398 | 142.19637 | 35169 ft | 448 kts | 36° |
| 2026-04-19 18:21 | 54.19003 | 142.26874 | 35164 ft | 448 kts | 36° |
| 2026-04-19 18:22 | 54.23569 | 142.34081 | 35163 ft | 448 kts | 36° |
| 2026-04-19 18:22 | 54.28150 | 142.41352 | 35188 ft | 448 kts | 37° |
| 2026-04-19 18:23 | 54.32688 | 142.48571 | 35177 ft | 447 kts | 37° |
| 2026-04-19 18:23 | 54.37253 | 142.55853 | 35173 ft | 447 kts | 37° |
| 2026-04-19 18:24 | 54.41814 | 142.63137 | 35160 ft | 447 kts | 37° |
| 2026-04-19 18:24 | 54.46342 | 142.70400 | 35187 ft | 447 kts | 37° |
| 2026-04-19 18:25 | 54.50880 | 142.77718 | 35182 ft | 447 kts | 37° |
| 2026-04-19 18:25 | 54.55420 | 142.85038 | 35179 ft | 446 kts | 37° |
| 2026-04-19 18:26 | 54.59950 | 142.92369 | 35173 ft | 446 kts | 37° |
| 2026-04-19 18:26 | 54.64420 | 142.99722 | 35165 ft | 446 kts | 38° |
| 2026-04-19 18:27 | 54.68898 | 143.07205 | 35182 ft | 447 kts | 39° |
| 2026-04-19 18:27 | 54.73380 | 143.14681 | 35171 ft | 446 kts | 39° |
| 2026-04-19 18:28 | 54.77843 | 143.22116 | 35164 ft | 446 kts | 39° |
| 2026-04-19 18:28 | 54.82319 | 143.29622 | 35162 ft | 447 kts | 39° |
| 2026-04-19 18:29 | 54.86759 | 143.37095 | 35192 ft | 447 kts | 39° |
| 2026-04-19 18:29 | 54.91234 | 143.44640 | 35176 ft | 447 kts | 39° |
| 2026-04-19 18:30 | 54.95689 | 143.52171 | 35168 ft | 447 kts | 39° |
| 2026-04-19 18:30 | 55.00127 | 143.59701 | 35154 ft | 447 kts | 40° |
| 2026-04-19 18:31 | 55.04579 | 143.67276 | 35149 ft | 447 kts | 40° |
| 2026-04-19 18:31 | 55.09027 | 143.74877 | 35170 ft | 447 kts | 40° |
| 2026-04-19 18:32 | 55.13464 | 143.82497 | 35162 ft | 446 kts | 40° |
| 2026-04-19 18:32 | 55.17892 | 143.90111 | 35155 ft | 446 kts | 40° |
| 2026-04-19 18:33 | 55.22292 | 143.97691 | 35151 ft | 446 kts | 40° |
| 2026-04-19 18:33 | 55.26698 | 144.05296 | 35139 ft | 446 kts | 40° |
| 2026-04-19 18:34 | 55.31118 | 144.12988 | 35162 ft | 445 kts | 41° |
| 2026-04-19 18:34 | 55.35517 | 144.20662 | 35150 ft | 445 kts | 41° |
| 2026-04-19 18:35 | 55.39884 | 144.28292 | 35145 ft | 445 kts | 41° |
| 2026-04-19 18:35 | 55.44284 | 144.35997 | 35134 ft | 445 kts | 41° |
| 2026-04-19 18:36 | 55.48673 | 144.43718 | 35141 ft | 444 kts | 41° |
| 2026-04-19 18:36 | 55.53024 | 144.51399 | 35147 ft | 444 kts | 42° |
| 2026-04-19 18:37 | 55.57388 | 144.59141 | 35144 ft | 444 kts | 42° |
| 2026-04-19 18:37 | 55.61755 | 144.66901 | 35140 ft | 444 kts | 42° |
| 2026-04-19 18:38 | 55.66083 | 144.74596 | 35128 ft | 444 kts | 42° |
| 2026-04-19 18:38 | 55.70432 | 144.82392 | 35128 ft | 444 kts | 42° |
| 2026-04-19 18:39 | 55.74778 | 144.90217 | 35124 ft | 444 kts | 42° |
| 2026-04-19 18:39 | 55.79106 | 144.97959 | 35125 ft | 444 kts | 42° |
| 2026-04-19 18:40 | 55.83471 | 145.05759 | 35124 ft | 444 kts | 42° |
| 2026-04-19 18:40 | 55.87834 | 145.13612 | 35123 ft | 444 kts | 42° |
| 2026-04-19 18:41 | 55.92144 | 145.21420 | 35138 ft | 444 kts | 43° |
| 2026-04-19 18:41 | 55.96478 | 145.29284 | 35126 ft | 444 kts | 43° |
| 2026-04-19 18:42 | 56.00804 | 145.37152 | 35122 ft | 444 kts | 43° |
| 2026-04-19 18:42 | 56.05134 | 145.45063 | 35118 ft | 443 kts | 43° |
| 2026-04-19 18:43 | 56.09415 | 145.52933 | 35113 ft | 443 kts | 43° |
| 2026-04-19 18:43 | 56.13718 | 145.60872 | 35124 ft | 443 kts | 43° |
| 2026-04-19 18:44 | 56.18013 | 145.68817 | 35113 ft | 443 kts | 44° |
| 2026-04-19 18:44 | 56.22270 | 145.76722 | 35100 ft | 442 kts | 44° |
| 2026-04-19 18:45 | 56.26541 | 145.84689 | 35098 ft | 442 kts | 44° |
| 2026-04-19 18:45 | 56.30816 | 145.92684 | 35097 ft | 442 kts | 44° |
| 2026-04-19 18:46 | 56.35066 | 146.00648 | 35115 ft | 442 kts | 44° |
| 2026-04-19 18:46 | 56.39334 | 146.08687 | 35112 ft | 442 kts | 44° |
| 2026-04-19 18:47 | 56.43587 | 146.16752 | 35106 ft | 442 kts | 45° |
| 2026-04-19 18:47 | 56.47804 | 146.24756 | 35103 ft | 442 kts | 44° |
| 2026-04-19 18:48 | 56.52044 | 146.32806 | 35100 ft | 442 kts | 45° |
| 2026-04-19 18:48 | 56.56281 | 146.40900 | 35110 ft | 441 kts | 45° |
| 2026-04-19 18:49 | 56.60513 | 146.49003 | 35109 ft | 441 kts | 45° |
| 2026-04-19 18:49 | 56.64711 | 146.57072 | 35114 ft | 441 kts | 45° |
| 2026-04-19 18:50 | 56.68927 | 146.65210 | 35111 ft | 440 kts | 45° |
| 2026-04-19 18:50 | 56.73113 | 146.73320 | 35125 ft | 440 kts | 46° |
| 2026-04-19 18:51 | 56.77300 | 146.81467 | 35118 ft | 440 kts | 46° |
| 2026-04-19 18:51 | 56.81485 | 146.89624 | 35117 ft | 440 kts | 46° |
| 2026-04-19 18:52 | 56.87725 | 147.01854 | 35111 ft | 440 kts | 46° |
| 2026-04-19 18:52 | 56.91905 | 147.10083 | 35107 ft | 440 kts | 46° |
| 2026-04-19 18:53 | 56.96045 | 147.18269 | 35112 ft | 440 kts | 47° |
| 2026-04-19 18:53 | 57.00200 | 147.26507 | 35119 ft | 439 kts | 46° |
| 2026-04-19 18:54 | 57.04347 | 147.34747 | 35124 ft | 438 kts | 47° |
| 2026-04-19 18:54 | 57.08464 | 147.42949 | 35122 ft | 438 kts | 47° |
| 2026-04-19 18:55 | 57.12599 | 147.51213 | 35117 ft | 438 kts | 47° |
| 2026-04-19 18:55 | 57.16701 | 147.59446 | 35116 ft | 438 kts | 47° |
| 2026-04-19 18:56 | 57.20814 | 147.67768 | 35116 ft | 438 kts | 47° |
| 2026-04-19 18:56 | 57.24902 | 147.76053 | 35117 ft | 437 kts | 47° |
| 2026-04-19 18:57 | 57.29001 | 147.84365 | 35113 ft | 437 kts | 47° |
| 2026-04-19 18:57 | 57.33082 | 147.92684 | 35112 ft | 437 kts | 48° |
| 2026-04-19 18:58 | 57.37176 | 148.01062 | 35119 ft | 437 kts | 48° |
| 2026-04-19 18:58 | 57.41217 | 148.09378 | 35115 ft | 436 kts | 49° |
| 2026-04-19 18:59 | 57.45292 | 148.17768 | 35110 ft | 436 kts | 48° |
| 2026-04-19 18:59 | 57.49357 | 148.26156 | 35109 ft | 436 kts | 49° |
| 2026-04-19 19:00 | 57.53385 | 148.34515 | 35108 ft | 436 kts | 49° |
| 2026-04-19 19:00 | 57.57431 | 148.42943 | 35116 ft | 435 kts | 49° |
| 2026-04-19 19:01 | 57.61441 | 148.51339 | 35113 ft | 435 kts | 49° |
| 2026-04-19 19:01 | 57.65473 | 148.59774 | 35113 ft | 435 kts | 49° |
| 2026-04-19 19:02 | 57.68823 | 148.66821 | 35112 ft | 435 kts | 49° |
| 2026-04-19 19:02 | 57.72847 | 148.75323 | 35099 ft | 434 kts | 49° |
| 2026-04-19 19:03 | 57.76828 | 148.83748 | 35100 ft | 434 kts | 50° |
| 2026-04-19 19:03 | 57.80823 | 148.92266 | 35100 ft | 433 kts | 50° |
| 2026-04-19 19:04 | 57.84788 | 149.00737 | 35101 ft | 433 kts | 50° |
| 2026-04-19 19:04 | 57.88768 | 149.09271 | 35098 ft | 433 kts | 50° |
| 2026-04-19 19:05 | 57.92735 | 149.17804 | 35095 ft | 433 kts | 50° |
| 2026-04-19 19:05 | 57.96681 | 149.26310 | 35095 ft | 433 kts | 50° |
| 2026-04-19 19:06 | 58.00646 | 149.34904 | 35098 ft | 432 kts | 50° |
| 2026-04-19 19:06 | 58.04571 | 149.43434 | 35098 ft | 432 kts | 50° |
| 2026-04-19 19:07 | 58.08509 | 149.52017 | 35098 ft | 431 kts | 51° |
| 2026-04-19 19:07 | 58.12433 | 149.60625 | 35092 ft | 431 kts | 51° |
| 2026-04-19 19:08 | 58.16334 | 149.69186 | 35090 ft | 431 kts | 51° |
| 2026-04-19 19:08 | 58.20255 | 149.77818 | 35096 ft | 430 kts | 51° |
| 2026-04-19 19:09 | 58.24163 | 149.86442 | 35093 ft | 430 kts | 51° |
| 2026-04-19 19:09 | 58.28036 | 149.95041 | 35093 ft | 429 kts | 51° |
| 2026-04-19 19:10 | 58.31916 | 150.03719 | 35096 ft | 429 kts | 51° |
| 2026-04-19 19:10 | 58.35766 | 150.12347 | 35094 ft | 429 kts | 51° |
| 2026-04-19 19:11 | 58.39631 | 150.21042 | 35089 ft | 429 kts | 52° |
| 2026-04-19 19:11 | 58.43490 | 150.29747 | 35092 ft | 428 kts | 52° |
| 2026-04-19 19:12 | 58.47315 | 150.38383 | 35100 ft | 428 kts | 52° |
| 2026-04-19 19:12 | 58.51156 | 150.47094 | 35092 ft | 427 kts | 52° |
| 2026-04-19 19:13 | 58.54988 | 150.55815 | 35097 ft | 427 kts | 52° |
| 2026-04-19 19:13 | 58.58783 | 150.64507 | 35090 ft | 427 kts | 53° |
| 2026-04-19 19:14 | 58.62584 | 150.73282 | 35102 ft | 426 kts | 53° |
| 2026-04-19 19:14 | 58.66305 | 150.82061 | 35099 ft | 425 kts | 54° |
| 2026-04-19 19:15 | 58.70012 | 150.90896 | 35112 ft | 425 kts | 54° |
| 2026-04-19 19:15 | 58.73722 | 150.99766 | 35110 ft | 425 kts | 54° |
| 2026-04-19 19:16 | 58.77446 | 151.08624 | 35104 ft | 425 kts | 54° |
| 2026-04-19 19:16 | 58.81183 | 151.17468 | 35117 ft | 424 kts | 54° |
| 2026-04-19 19:17 | 58.84916 | 151.26227 | 35123 ft | 424 kts | 54° |
| 2026-04-19 19:17 | 58.88654 | 151.35063 | 35122 ft | 423 kts | 54° |
| 2026-04-19 19:18 | 58.92357 | 151.43840 | 35116 ft | 423 kts | 54° |
| 2026-04-19 19:18 | 58.96070 | 151.52696 | 35121 ft | 422 kts | 54° |
| 2026-04-19 19:19 | 58.99775 | 151.61566 | 35111 ft | 422 kts | 54° |
| 2026-04-19 19:20 | 59.05299 | 151.74842 | 35115 ft | 421 kts | 54° |
| 2026-04-19 19:20 | 59.08961 | 151.83687 | 35119 ft | 421 kts | 54° |
| 2026-04-19 19:21 | 59.12642 | 151.92579 | 35119 ft | 421 kts | 54° |
| 2026-04-19 19:21 | 59.16288 | 152.01438 | 35117 ft | 421 kts | 54° |
| 2026-04-19 19:22 | 59.19953 | 152.10364 | 35105 ft | 420 kts | 55° |
| 2026-04-19 19:22 | 59.23586 | 152.19264 | 35110 ft | 420 kts | 55° |
| 2026-04-19 19:23 | 59.27230 | 152.28231 | 35113 ft | 420 kts | 55° |
| 2026-04-19 19:23 | 59.30850 | 152.37151 | 35115 ft | 420 kts | 55° |
| 2026-04-19 19:24 | 59.34482 | 152.46146 | 35118 ft | 419 kts | 55° |
| 2026-04-19 19:24 | 59.38107 | 152.55140 | 35103 ft | 419 kts | 55° |
| 2026-04-19 19:25 | 59.41693 | 152.64077 | 35105 ft | 419 kts | 55° |
| 2026-04-19 19:25 | 59.45307 | 152.73130 | 35107 ft | 419 kts | 55° |
| 2026-04-19 19:26 | 59.48903 | 152.82187 | 35103 ft | 420 kts | 55° |
| 2026-04-19 19:26 | 59.52485 | 152.91196 | 35110 ft | 420 kts | 55° |
| 2026-04-19 19:27 | 59.56081 | 153.00292 | 35111 ft | 419 kts | 56° |
| 2026-04-19 19:27 | 59.59634 | 153.09351 | 35099 ft | 419 kts | 56° |
| 2026-04-19 19:28 | 59.63217 | 153.18511 | 35104 ft | 419 kts | 56° |
| 2026-04-19 19:28 | 59.66770 | 153.27619 | 35111 ft | 419 kts | 56° |
| 2026-04-19 19:29 | 59.70335 | 153.36781 | 35116 ft | 419 kts | 56° |
| 2026-04-19 19:29 | 59.73873 | 153.45916 | 35108 ft | 419 kts | 56° |
| 2026-04-19 19:30 | 59.77407 | 153.55078 | 35109 ft | 419 kts | 56° |
| 2026-04-19 19:30 | 59.80950 | 153.64299 | 35105 ft | 419 kts | 56° |
| 2026-04-19 19:31 | 59.84487 | 153.73553 | 35106 ft | 419 kts | 56° |
| 2026-04-19 19:31 | 59.87994 | 153.82760 | 35095 ft | 419 kts | 56° |
| 2026-04-19 19:32 | 59.91517 | 153.92046 | 35097 ft | 419 kts | 56° |
| 2026-04-19 19:32 | 59.94998 | 154.01262 | 35099 ft | 419 kts | 56° |
| 2026-04-19 19:33 | 59.98515 | 154.10587 | 35076 ft | 419 kts | 56° |
| 2026-04-19 19:33 | 60.01999 | 154.19847 | 35085 ft | 418 kts | 57° |
| 2026-04-19 19:34 | 60.05492 | 154.29204 | 35082 ft | 418 kts | 57° |
| 2026-04-19 19:34 | 60.08953 | 154.38533 | 35086 ft | 418 kts | 57° |
| 2026-04-19 19:35 | 60.12428 | 154.47907 | 35084 ft | 418 kts | 57° |
| 2026-04-19 19:35 | 60.15897 | 154.57282 | 35080 ft | 418 kts | 57° |
| 2026-04-19 19:36 | 60.19354 | 154.66694 | 35077 ft | 417 kts | 57° |
| 2026-04-19 19:36 | 60.22611 | 154.76245 | 35082 ft | 415 kts | 61° |
| 2026-04-19 19:37 | 60.25664 | 154.86151 | 35096 ft | 414 kts | 62° |
| 2026-04-19 19:37 | 60.28684 | 154.96057 | 35091 ft | 414 kts | 62° |
| 2026-04-19 19:38 | 60.31715 | 155.05862 | 35088 ft | 414 kts | 61° |
| 2026-04-19 19:38 | 60.34791 | 155.15724 | 35067 ft | 414 kts | 61° |
| 2026-04-19 19:39 | 60.37857 | 155.25637 | 35069 ft | 414 kts | 61° |
| 2026-04-19 19:39 | 60.40899 | 155.35527 | 35066 ft | 415 kts | 62° |
| 2026-04-19 19:40 | 60.43931 | 155.45421 | 35071 ft | 415 kts | 62° |
| 2026-04-19 19:40 | 60.46972 | 155.55383 | 35069 ft | 415 kts | 62° |
| 2026-04-19 19:41 | 60.49984 | 155.65306 | 35050 ft | 415 kts | 61° |
| 2026-04-19 19:41 | 60.53011 | 155.75322 | 35053 ft | 415 kts | 62° |
| 2026-04-19 19:42 | 60.56020 | 155.85316 | 35051 ft | 416 kts | 62° |
| 2026-04-19 19:42 | 60.58537 | 155.93696 | 35054 ft | 416 kts | 62° |
| 2026-04-19 19:43 | 60.62052 | 156.05420 | 35061 ft | 417 kts | 62° |
| 2026-04-19 19:43 | 60.64564 | 156.13835 | 35063 ft | 417 kts | 62° |
| 2026-04-19 19:44 | 60.67564 | 156.23984 | 35047 ft | 417 kts | 62° |
| 2026-04-19 19:44 | 60.70560 | 156.34151 | 35052 ft | 417 kts | 62° |
| 2026-04-19 19:45 | 60.73540 | 156.44295 | 35050 ft | 418 kts | 62° |
| 2026-04-19 19:45 | 60.76513 | 156.54467 | 35057 ft | 418 kts | 62° |
| 2026-04-19 19:46 | 60.79493 | 156.64723 | 35055 ft | 418 kts | 62° |
| 2026-04-19 19:46 | 60.82460 | 156.74995 | 35040 ft | 419 kts | 62° |
| 2026-04-19 19:47 | 60.85402 | 156.85222 | 35044 ft | 418 kts | 63° |
| 2026-04-19 19:47 | 60.88368 | 156.95534 | 35047 ft | 418 kts | 63° |
| 2026-04-19 19:48 | 60.91318 | 157.05799 | 35049 ft | 418 kts | 63° |
| 2026-04-19 19:48 | 60.94267 | 157.16155 | 35053 ft | 418 kts | 63° |
| 2026-04-19 19:49 | 60.97171 | 157.26418 | 35066 ft | 417 kts | 63° |
| 2026-04-19 19:49 | 61.00093 | 157.36788 | 35056 ft | 417 kts | 63° |
| 2026-04-19 19:50 | 61.02998 | 157.47150 | 35069 ft | 416 kts | 63° |
| 2026-04-19 19:50 | 61.05872 | 157.57449 | 35073 ft | 415 kts | 63° |
| 2026-04-19 19:51 | 61.08738 | 157.67743 | 35071 ft | 414 kts | 63° |
| 2026-04-19 19:51 | 61.11609 | 157.78098 | 35071 ft | 414 kts | 64° |
| 2026-04-19 19:52 | 61.14449 | 157.88404 | 35066 ft | 413 kts | 64° |
| 2026-04-19 19:52 | 61.17297 | 157.98761 | 35059 ft | 413 kts | 63° |
| 2026-04-19 19:53 | 61.20138 | 158.09158 | 35051 ft | 413 kts | 63° |
| 2026-04-19 19:53 | 61.22935 | 158.19486 | 35049 ft | 412 kts | 63° |
| 2026-04-19 19:54 | 61.25749 | 158.29901 | 35051 ft | 412 kts | 63° |
| 2026-04-19 19:54 | 61.28563 | 158.40334 | 35048 ft | 412 kts | 63° |
| 2026-04-19 19:55 | 61.31339 | 158.50687 | 35055 ft | 412 kts | 64° |
| 2026-04-19 19:55 | 61.34129 | 158.61150 | 35038 ft | 412 kts | 63° |
| 2026-04-19 19:56 | 61.36910 | 158.71599 | 35056 ft | 411 kts | 63° |
| 2026-04-19 19:56 | 61.39657 | 158.81996 | 35062 ft | 410 kts | 64° |
| 2026-04-19 19:57 | 61.42409 | 158.92445 | 35060 ft | 410 kts | 63° |
| 2026-04-19 19:57 | 61.45138 | 159.02861 | 35049 ft | 410 kts | 65° |
| 2026-04-19 19:58 | 61.47869 | 159.13343 | 35048 ft | 410 kts | 64° |
| 2026-04-19 19:58 | 61.50582 | 159.23822 | 35057 ft | 409 kts | 63° |
| 2026-04-19 19:59 | 61.53275 | 159.34250 | 35046 ft | 409 kts | 64° |
| 2026-04-19 19:59 | 61.55984 | 159.44773 | 35045 ft | 409 kts | 64° |
| 2026-04-19 20:00 | 61.58685 | 159.55326 | 35046 ft | 408 kts | 64° |
| 2026-04-19 20:00 | 61.61354 | 159.65815 | 35047 ft | 408 kts | 64° |
| 2026-04-19 20:01 | 61.64027 | 159.76389 | 35030 ft | 410 kts | 64° |
| 2026-04-19 20:01 | 61.66698 | 159.86995 | 35023 ft | 412 kts | 63° |
| 2026-04-19 20:02 | 61.69396 | 159.97718 | 35030 ft | 413 kts | 63° |
| 2026-04-19 20:02 | 61.72072 | 160.08394 | 35028 ft | 414 kts | 63° |
| 2026-04-19 20:03 | 61.74759 | 160.19203 | 35033 ft | 415 kts | 63° |
| 2026-04-19 20:03 | 61.77415 | 160.29971 | 35041 ft | 415 kts | 63° |
| 2026-04-19 20:04 | 61.80092 | 160.40840 | 35050 ft | 415 kts | 63° |
| 2026-04-19 20:04 | 61.82736 | 160.51650 | 35057 ft | 415 kts | 63° |
| 2026-04-19 20:05 | 61.85749 | 160.62104 | 35061 ft | 415 kts | 57° |
| 2026-04-19 20:05 | 61.88891 | 160.72275 | 35061 ft | 415 kts | 58° |
| 2026-04-19 20:06 | 61.92057 | 160.82551 | 35077 ft | 414 kts | 58° |
| 2026-04-19 20:06 | 61.95203 | 160.92821 | 35076 ft | 414 kts | 58° |
| 2026-04-19 20:07 | 61.98331 | 161.03077 | 35090 ft | 414 kts | 58° |
| 2026-04-19 20:07 | 62.01459 | 161.13398 | 35090 ft | 414 kts | 58° |
| 2026-04-19 20:08 | 62.04562 | 161.23683 | 35082 ft | 414 kts | 58° |
| 2026-04-19 20:08 | 62.07676 | 161.34040 | 35097 ft | 414 kts | 58° |
| 2026-04-19 20:09 | 62.10786 | 161.44429 | 35096 ft | 414 kts | 58° |
| 2026-04-19 20:09 | 62.13879 | 161.54825 | 35095 ft | 414 kts | 59° |
| 2026-04-19 20:10 | 62.16974 | 161.65248 | 35092 ft | 414 kts | 59° |
| 2026-04-19 20:10 | 62.20043 | 161.75671 | 35093 ft | 415 kts | 59° |
| 2026-04-19 20:11 | 62.23109 | 161.86113 | 35089 ft | 415 kts | 59° |
| 2026-04-19 20:11 | 62.26191 | 161.96648 | 35091 ft | 416 kts | 59° |
| 2026-04-19 20:12 | 62.29261 | 162.07182 | 35084 ft | 416 kts | 59° |
| 2026-04-19 20:12 | 62.32302 | 162.17684 | 35089 ft | 416 kts | 59° |
| 2026-04-19 20:13 | 62.35365 | 162.28299 | 35088 ft | 416 kts | 59° |
| 2026-04-19 20:13 | 62.38384 | 162.38838 | 35097 ft | 415 kts | 59° |
| 2026-04-19 20:14 | 62.41418 | 162.49474 | 35096 ft | 415 kts | 59° |
| 2026-04-19 20:14 | 62.44446 | 162.60128 | 35102 ft | 415 kts | 59° |
| 2026-04-19 20:15 | 62.46958 | 162.69000 | 35095 ft | 415 kts | 59° |
| 2026-04-19 20:15 | 62.50456 | 162.81412 | 35097 ft | 415 kts | 59° |
| 2026-04-19 20:16 | 62.53439 | 162.92042 | 35105 ft | 415 kts | 59° |
| 2026-04-19 20:16 | 62.56431 | 163.02757 | 35100 ft | 415 kts | 59° |
| 2026-04-19 20:17 | 62.59410 | 163.13482 | 35090 ft | 414 kts | 59° |
| 2026-04-19 20:17 | 62.62366 | 163.24186 | 35090 ft | 414 kts | 60° |
| 2026-04-19 20:18 | 62.65330 | 163.34974 | 35093 ft | 414 kts | 60° |
| 2026-04-19 20:18 | 62.68271 | 163.45710 | 35092 ft | 414 kts | 60° |
| 2026-04-19 20:19 | 62.71207 | 163.56477 | 35085 ft | 415 kts | 59° |
| 2026-04-19 20:19 | 62.74164 | 163.67393 | 35201 ft | 420 kts | 59° |
| 2026-04-19 20:19 | 62.75648 | 163.72889 | 35332 ft | 422 kts | 59° |
| 2026-04-19 20:20 | 62.77144 | 163.78442 | 35493 ft | 424 kts | 59° |
| 2026-04-19 20:20 | 62.78620 | 163.83935 | 35688 ft | 425 kts | 59° |
| 2026-04-19 20:20 | 62.80117 | 163.89531 | 35878 ft | 425 kts | 59° |
| 2026-04-19 20:20 | 62.81612 | 163.95128 | 36071 ft | 426 kts | 60° |
| 2026-04-19 20:21 | 62.83114 | 164.00760 | 36252 ft | 427 kts | 60° |
| 2026-04-19 20:21 | 62.84614 | 164.06390 | 36438 ft | 427 kts | 60° |
| 2026-04-19 20:21 | 62.86094 | 164.11958 | 36687 ft | 426 kts | 60° |
| 2026-04-19 20:21 | 62.87588 | 164.17608 | 36835 ft | 428 kts | 60° |
| 2026-04-19 20:22 | 62.89083 | 164.23272 | 37024 ft | 427 kts | 60° |
| 2026-04-19 20:22 | 62.92053 | 164.34538 | 37102 ft | 427 kts | 60° |
| 2026-04-19 20:23 | 62.94518 | 164.43947 | 37100 ft | 426 kts | 60° |
| 2026-04-19 20:23 | 62.97946 | 164.57095 | 37107 ft | 426 kts | 60° |
| 2026-04-19 20:24 | 63.00406 | 164.66592 | 37107 ft | 427 kts | 60° |
| 2026-04-19 20:24 | 63.03334 | 164.77964 | 37116 ft | 428 kts | 60° |
| 2026-04-19 20:25 | 63.06258 | 164.89357 | 37134 ft | 428 kts | 60° |
| 2026-04-19 20:25 | 63.09189 | 165.00821 | 37131 ft | 428 kts | 60° |
| 2026-04-19 20:26 | 63.12111 | 165.12324 | 37132 ft | 428 kts | 60° |
| 2026-04-19 20:26 | 63.15006 | 165.23788 | 37131 ft | 429 kts | 60° |
| 2026-04-19 20:27 | 63.17911 | 165.35332 | 37125 ft | 429 kts | 60° |
| 2026-04-19 20:27 | 63.20817 | 165.46924 | 37125 ft | 429 kts | 61° |
| 2026-04-19 20:28 | 63.23679 | 165.58442 | 37130 ft | 429 kts | 61° |
| 2026-04-19 20:28 | 63.26555 | 165.70068 | 37126 ft | 429 kts | 61° |
| 2026-04-19 20:29 | 63.29426 | 165.81712 | 37138 ft | 429 kts | 61° |
| 2026-04-19 20:29 | 63.32268 | 165.93293 | 37135 ft | 429 kts | 61° |
| 2026-04-19 20:30 | 63.36550 | 166.10855 | 37136 ft | 429 kts | 61° |
| 2026-04-19 20:30 | 63.39387 | 166.22565 | 37129 ft | 429 kts | 61° |
| 2026-04-19 20:31 | 63.42189 | 166.34237 | 37131 ft | 429 kts | 62° |
| 2026-04-19 20:31 | 63.45009 | 166.46022 | 37131 ft | 429 kts | 62° |
| 2026-04-19 20:32 | 63.47801 | 166.57739 | 37132 ft | 429 kts | 62° |
| 2026-04-19 20:32 | 63.50604 | 166.69552 | 37147 ft | 429 kts | 62° |
| 2026-04-19 20:33 | 63.53386 | 166.81326 | 37145 ft | 429 kts | 62° |
| 2026-04-19 20:33 | 63.56163 | 166.93211 | 37156 ft | 428 kts | 62° |
| 2026-04-19 20:34 | 63.58926 | 167.05085 | 37151 ft | 428 kts | 62° |
| 2026-04-19 20:34 | 63.61665 | 167.16890 | 37144 ft | 428 kts | 62° |
| 2026-04-19 20:35 | 63.64419 | 167.28831 | 37136 ft | 428 kts | 62° |
| 2026-04-19 20:35 | 63.66930 | 167.40889 | 37138 ft | 428 kts | 71° |
| 2026-04-19 20:36 | 63.68722 | 167.53756 | 37133 ft | 429 kts | 72° |
| 2026-04-19 20:36 | 63.69904 | 167.62253 | 37131 ft | 429 kts | 72° |
| 2026-04-19 20:37 | 63.72290 | 167.79416 | 37134 ft | 430 kts | 72° |
| 2026-04-19 20:37 | 63.74063 | 167.92330 | 37129 ft | 430 kts | 72° |
| 2026-04-19 20:38 | 63.75823 | 168.05271 | 37135 ft | 431 kts | 72° |
| 2026-04-19 20:38 | 63.77564 | 168.18179 | 37130 ft | 431 kts | 72° |
| 2026-04-19 20:39 | 63.79307 | 168.31184 | 37145 ft | 431 kts | 72° |
| 2026-04-19 20:39 | 63.81027 | 168.44101 | 37141 ft | 431 kts | 72° |
| 2026-04-19 20:40 | 63.82741 | 168.57152 | 37141 ft | 431 kts | 72° |
| 2026-04-19 20:40 | 63.84446 | 168.70208 | 37139 ft | 431 kts | 72° |
| 2026-04-19 20:41 | 63.86142 | 168.83230 | 37143 ft | 431 kts | 72° |
| 2026-04-19 20:41 | 63.87829 | 168.96300 | 37143 ft | 431 kts | 73° |
| 2026-04-19 20:42 | 63.89496 | 169.09408 | 37147 ft | 432 kts | 73° |
| 2026-04-19 20:42 | 63.91145 | 169.22460 | 37141 ft | 432 kts | 73° |
| 2026-04-19 20:43 | 63.92798 | 169.35652 | 37142 ft | 432 kts | 73° |
| 2026-04-19 20:43 | 63.94435 | 169.48755 | 37141 ft | 433 kts | 73° |
| 2026-04-19 20:44 | 63.96066 | 169.61966 | 37143 ft | 433 kts | 73° |
| 2026-04-19 20:44 | 63.97683 | 169.75169 | 37141 ft | 433 kts | 73° |
| 2026-04-19 20:45 | 63.99292 | 169.88410 | 37149 ft | 433 kts | 73° |
| 2026-04-19 20:45 | 64.00846 | 170.01374 | 37152 ft | 433 kts | 73° |
| 2026-04-19 20:46 | 64.03976 | 170.27732 | 37145 ft | 433 kts | 73° |
| 2026-04-19 20:47 | 64.05527 | 170.40981 | 37146 ft | 433 kts | 73° |
| 2026-04-19 20:47 | 64.07073 | 170.54318 | 37152 ft | 433 kts | 74° |
| 2026-04-19 20:48 | 64.08609 | 170.67589 | 37154 ft | 433 kts | 73° |
| 2026-04-19 20:48 | 64.10175 | 170.80930 | 37151 ft | 433 kts | 73° |
| 2026-04-19 20:49 | 64.11715 | 170.94204 | 37142 ft | 433 kts | 74° |
| 2026-04-19 20:49 | 64.13243 | 171.07488 | 37142 ft | 433 kts | 74° |
| 2026-04-19 20:50 | 64.14775 | 171.20853 | 37142 ft | 433 kts | 74° |
| 2026-04-19 20:50 | 64.16291 | 171.34225 | 37150 ft | 433 kts | 75° |
| 2026-04-19 20:51 | 64.17769 | 171.47528 | 37149 ft | 432 kts | 75° |
| 2026-04-19 20:51 | 64.19250 | 171.60912 | 37147 ft | 432 kts | 75° |
| 2026-04-19 20:52 | 64.20718 | 171.74334 | 37143 ft | 432 kts | 75° |
| 2026-04-19 20:52 | 64.22167 | 171.87669 | 37138 ft | 431 kts | 75° |
| 2026-04-19 20:53 | 64.23614 | 172.01056 | 37136 ft | 431 kts | 75° |
| 2026-04-19 20:53 | 64.25042 | 172.14401 | 37150 ft | 431 kts | 75° |
| 2026-04-19 20:54 | 64.26457 | 172.27850 | 37147 ft | 431 kts | 75° |
| 2026-04-19 20:54 | 64.27859 | 172.41286 | 37144 ft | 431 kts | 75° |
| 2026-04-19 20:55 | 64.29243 | 172.54661 | 37141 ft | 431 kts | 75° |
| 2026-04-19 20:55 | 64.30624 | 172.68112 | 37141 ft | 431 kts | 76° |
| 2026-04-19 20:56 | 64.31987 | 172.81596 | 37140 ft | 431 kts | 76° |
| 2026-04-19 20:56 | 64.33335 | 172.95001 | 37121 ft | 431 kts | 76° |
| 2026-04-19 20:57 | 64.34013 | 173.01776 | 36861 ft | 431 kts | 76° |
| 2026-04-19 20:57 | 64.34685 | 173.08535 | 36607 ft | 430 kts | 76° |
| 2026-04-19 20:57 | 64.35353 | 173.15279 | 36039 ft | 432 kts | 76° |
| 2026-04-19 20:57 | 64.36016 | 173.22036 | 35508 ft | 429 kts | 75° |
| 2026-04-19 20:58 | 64.36670 | 173.28728 | 35013 ft | 425 kts | 75° |
| 2026-04-19 20:58 | 64.37318 | 173.35374 | 34514 ft | 422 kts | 75° |
| 2026-04-19 20:58 | 64.37956 | 173.41925 | 33957 ft | 420 kts | 75° |
| 2026-04-19 20:58 | 64.38591 | 173.48503 | 33434 ft | 415 kts | 75° |
| 2026-04-19 20:59 | 64.39207 | 173.54988 | 32931 ft | 410 kts | 75° |
| 2026-04-19 20:59 | 64.39803 | 173.61303 | 32463 ft | 405 kts | 75° |
| 2026-04-19 20:59 | 64.40405 | 173.67671 | 31956 ft | 401 kts | 75° |
| 2026-04-19 20:59 | 64.40998 | 173.73944 | 31481 ft | 396 kts | 75° |
| 2026-04-19 21:00 | 64.41582 | 173.80151 | 31013 ft | 392 kts | 75° |
| 2026-04-19 21:00 | 64.42151 | 173.86228 | 30559 ft | 388 kts | 75° |
| 2026-04-19 21:00 | 64.42716 | 173.92309 | 30083 ft | 383 kts | 75° |
| 2026-04-19 21:00 | 64.43271 | 173.98314 | 29615 ft | 377 kts | 75° |
| 2026-04-19 21:01 | 64.43810 | 174.04223 | 29177 ft | 371 kts | 75° |
| 2026-04-19 21:01 | 64.44335 | 174.09970 | 28765 ft | 365 kts | 74° |
| 2026-04-19 21:01 | 64.44855 | 174.15682 | 28362 ft | 358 kts | 74° |
| 2026-04-19 21:01 | 64.45365 | 174.21295 | 27972 ft | 352 kts | 74° |
| 2026-04-19 21:02 | 64.45862 | 174.26816 | 27572 ft | 346 kts | 74° |
| 2026-04-19 21:02 | 64.46348 | 174.32233 | 27191 ft | 341 kts | 74° |
| 2026-04-19 21:02 | 64.46829 | 174.37589 | 26810 ft | 335 kts | 74° |
| 2026-04-19 21:02 | 64.47300 | 174.42847 | 26439 ft | 331 kts | 74° |
| 2026-04-19 21:03 | 64.47755 | 174.47982 | 26063 ft | 327 kts | 74° |
| 2026-04-19 21:03 | 64.48210 | 174.53133 | 25676 ft | 323 kts | 74° |
| 2026-04-19 21:03 | 64.48658 | 174.58198 | 25280 ft | 318 kts | 74° |
| 2026-04-19 21:03 | 64.49100 | 174.63212 | 24900 ft | 315 kts | 74° |
| 2026-04-19 21:04 | 64.49535 | 174.68165 | 24504 ft | 312 kts | 73° |
| 2026-04-19 21:04 | 64.49967 | 174.73094 | 24116 ft | 309 kts | 73° |
| 2026-04-19 21:04 | 64.50385 | 174.77912 | 23723 ft | 306 kts | 74° |
| 2026-04-19 21:04 | 64.50803 | 174.82769 | 23291 ft | 304 kts | 74° |
| 2026-04-19 21:05 | 64.51212 | 174.87559 | 22900 ft | 299 kts | 74° |
| 2026-04-19 21:05 | 64.51614 | 174.92274 | 22525 ft | 295 kts | 74° |
| 2026-04-19 21:05 | 64.52003 | 174.96874 | 22159 ft | 292 kts | 74° |
| 2026-04-19 21:05 | 64.52392 | 175.01487 | 21803 ft | 288 kts | 74° |
| 2026-04-19 21:06 | 64.52776 | 175.06057 | 21443 ft | 285 kts | 74° |
| 2026-04-19 21:06 | 64.53150 | 175.10523 | 21096 ft | 283 kts | 74° |
| 2026-04-19 21:06 | 64.53527 | 175.15000 | 20747 ft | 280 kts | 74° |
| 2026-04-19 21:06 | 64.53900 | 175.19443 | 20409 ft | 279 kts | 74° |
| 2026-04-19 21:07 | 64.54270 | 175.23871 | 20050 ft | 277 kts | 74° |
| 2026-04-19 21:07 | 64.54630 | 175.28229 | 19725 ft | 276 kts | 74° |
| 2026-04-19 21:07 | 64.54992 | 175.32620 | 19372 ft | 275 kts | 74° |
| 2026-04-19 21:07 | 64.55354 | 175.36981 | 19041 ft | 273 kts | 74° |
| 2026-04-19 21:08 | 64.55711 | 175.41318 | 18706 ft | 273 kts | 75° |
| 2026-04-19 21:08 | 64.56063 | 175.45605 | 18372 ft | 273 kts | 75° |
| 2026-04-19 21:08 | 64.56419 | 175.49942 | 18001 ft | 271 kts | 75° |
| 2026-04-19 21:08 | 64.56767 | 175.54243 | 17670 ft | 269 kts | 75° |
| 2026-04-19 21:09 | 64.56995 | 175.57075 | 17450 ft | 268 kts | 75° |
| 2026-04-19 21:09 | 64.57336 | 175.61330 | 17132 ft | 266 kts | 75° |
| 2026-04-19 21:09 | 64.57676 | 175.65596 | 16812 ft | 265 kts | 76° |
| 2026-04-19 21:09 | 64.58006 | 175.69761 | 16491 ft | 264 kts | 76° |
| 2026-04-19 21:10 | 64.58335 | 175.73953 | 16184 ft | 262 kts | 76° |
| 2026-04-19 21:10 | 64.58665 | 175.78129 | 15871 ft | 261 kts | 76° |
| 2026-04-19 21:10 | 64.58995 | 175.82294 | 15554 ft | 260 kts | 76° |
| 2026-04-19 21:10 | 64.59322 | 175.86449 | 15248 ft | 260 kts | 78° |
| 2026-04-19 21:11 | 64.59448 | 175.90677 | 14944 ft | 267 kts | 88° |
| 2026-04-19 21:11 | 64.59345 | 175.95053 | 14627 ft | 277 kts | 89° |
| 2026-04-19 21:11 | 64.59228 | 175.99549 | 14316 ft | 278 kts | 89° |
| 2026-04-19 21:11 | 64.59109 | 176.04050 | 13977 ft | 277 kts | 89° |
| 2026-04-19 21:12 | 64.58991 | 176.08516 | 13627 ft | 275 kts | 89° |
| 2026-04-19 21:12 | 64.58873 | 176.12949 | 13299 ft | 273 kts | 89° |
| 2026-04-19 21:12 | 64.58753 | 176.17360 | 12970 ft | 271 kts | 89° |
| 2026-04-19 21:12 | 64.58637 | 176.21687 | 12659 ft | 270 kts | 89° |
| 2026-04-19 21:13 | 64.58519 | 176.26054 | 12345 ft | 268 kts | 89° |
| 2026-04-19 21:13 | 64.58403 | 176.30394 | 12033 ft | 267 kts | 89° |
| 2026-04-19 21:13 | 64.58284 | 176.34698 | 11720 ft | 266 kts | 89° |
| 2026-04-19 21:13 | 64.58163 | 176.38995 | 11410 ft | 264 kts | 89° |
| 2026-04-19 21:14 | 64.58042 | 176.43202 | 11106 ft | 263 kts | 89° |
| 2026-04-19 21:14 | 64.57920 | 176.47450 | 10788 ft | 261 kts | 89° |
| 2026-04-19 21:14 | 64.57795 | 176.51668 | 10483 ft | 259 kts | 89° |
| 2026-04-19 21:14 | 64.57668 | 176.55849 | 10182 ft | 256 kts | 88° |
| 2026-04-19 21:15 | 64.57547 | 176.59922 | 9876 ft | 254 kts | 88° |
| 2026-04-19 21:15 | 64.57424 | 176.64008 | 9564 ft | 252 kts | 89° |
| 2026-04-19 21:15 | 64.57301 | 176.68074 | 9269 ft | 251 kts | 89° |
| 2026-04-19 21:15 | 64.57178 | 176.72144 | 8975 ft | 250 kts | 89° |
| 2026-04-19 21:16 | 64.57055 | 176.76130 | 8683 ft | 249 kts | 89° |
| 2026-04-19 21:16 | 64.56928 | 176.80153 | 8397 ft | 250 kts | 89° |
| 2026-04-19 21:16 | 64.56802 | 176.84195 | 8086 ft | 249 kts | 89° |
| 2026-04-19 21:16 | 64.56677 | 176.88219 | 7798 ft | 249 kts | 89° |
| 2026-04-19 21:17 | 64.56552 | 176.92226 | 7491 ft | 248 kts | 90° |
| 2026-04-19 21:17 | 64.56424 | 176.96221 | 7201 ft | 247 kts | 90° |
| 2026-04-19 21:17 | 64.56294 | 177.00202 | 6913 ft | 246 kts | 90° |
| 2026-04-19 21:17 | 64.56164 | 177.04118 | 6634 ft | 245 kts | 90° |
| 2026-04-19 21:18 | 64.56032 | 177.08079 | 6328 ft | 244 kts | 90° |
| 2026-04-19 21:18 | 64.55902 | 177.11992 | 6032 ft | 241 kts | 90° |
| 2026-04-19 21:18 | 64.55772 | 177.15871 | 5751 ft | 239 kts | 91° |
| 2026-04-19 21:18 | 64.55644 | 177.19659 | 5475 ft | 236 kts | 91° |
| 2026-04-19 21:19 | 64.55513 | 177.23444 | 5199 ft | 233 kts | 91° |
| 2026-04-19 21:19 | 64.55384 | 177.27187 | 4928 ft | 230 kts | 91° |
| 2026-04-19 21:19 | 64.55256 | 177.30881 | 4651 ft | 228 kts | 91° |
| 2026-04-19 21:19 | 64.55130 | 177.34498 | 4398 ft | 222 kts | 91° |
| 2026-04-19 21:20 | 64.55003 | 177.37961 | 4323 ft | 207 kts | 93° |
| 2026-04-19 21:20 | 64.54709 | 177.41155 | 4273 ft | 196 kts | 99° |
| 2026-04-19 21:20 | 64.54369 | 177.44152 | 4225 ft | 190 kts | 99° |
| 2026-04-19 21:20 | 64.54039 | 177.47102 | 4141 ft | 188 kts | 99° |
| 2026-04-19 21:21 | 64.53713 | 177.50050 | 4057 ft | 187 kts | 99° |
| 2026-04-19 21:21 | 64.53394 | 177.52910 | 3970 ft | 178 kts | 98° |
| 2026-04-19 21:21 | 64.53091 | 177.55599 | 3896 ft | 169 kts | 98° |
| 2026-04-19 21:21 | 64.52969 | 177.58219 | 3820 ft | 158 kts | 79° |
| 2026-04-19 21:22 | 64.53349 | 177.60554 | 3766 ft | 153 kts | 56° |
| 2026-04-19 21:22 | 64.54135 | 177.62211 | 3564 ft | 157 kts | 35° |
| 2026-04-19 21:22 | 64.55191 | 177.63001 | 3392 ft | 158 kts | 25° |
| 2026-04-19 21:22 | 64.56217 | 177.63611 | 3197 ft | 149 kts | 25° |
| 2026-04-19 21:23 | 64.57194 | 177.64199 | 3021 ft | 141 kts | 25° |
| 2026-04-19 21:23 | 64.58116 | 177.64758 | 2858 ft | 132 kts | 25° |
| 2026-04-19 21:23 | 64.58994 | 177.65292 | 2728 ft | 128 kts | 25° |
| 2026-04-19 21:23 | 64.59847 | 177.65813 | 2611 ft | 126 kts | 24° |
| 2026-04-19 21:24 | 64.60685 | 177.66325 | 2453 ft | 126 kts | 24° |
| 2026-04-19 21:24 | 64.61527 | 177.66840 | 2411 ft | 125 kts | 24° |
| 2026-04-19 21:24 | 64.62378 | 177.67359 | 2309 ft | 125 kts | 23° |
| 2026-04-19 21:24 | 64.63223 | 177.67875 | 2159 ft | 125 kts | 22° |
| 2026-04-19 21:25 | 64.64058 | 177.68384 | 1987 ft | 125 kts | 21° |
| 2026-04-19 21:25 | 64.64903 | 177.68901 | 1808 ft | 125 kts | 21° |
| 2026-04-19 21:25 | 64.65772 | 177.69440 | 1540 ft | 134 kts | 19° |
| 2026-04-19 21:25 | 64.66651 | 177.69975 | 1319 ft | 128 kts | 17° |
| 2026-04-19 21:26 | 64.67502 | 177.70495 | 1118 ft | 125 kts | 15° |
| 2026-04-19 21:26 | 64.68349 | 177.70994 | 953 ft | 126 kts | 17° |
| 2026-04-19 21:26 | 64.69188 | 177.71525 | 754 ft | 124 kts | 14° |
| 2026-04-19 21:26 | 64.70033 | 177.72026 | 562 ft | 124 kts | 13° |
| 2026-04-19 21:27 | 64.70864 | 177.72536 | 407 ft | 124 kts | 14° |
| 2026-04-19 21:27 | 64.71681 | 177.73031 | 257 ft | 123 kts | 14° |
| 2026-04-19 21:27 | 64.72491 | 177.73532 | 167 ft | 112 kts | 14° |
| 2026-04-19 21:27 | 64.73094 | 177.73907 | 174 ft | 64 kts | 15° |
| 2026-04-19 21:28 | 64.73441 | 177.74121 | 176 ft | 44 kts | 15° |
| 2026-04-19 21:28 | 64.73706 | 177.74285 | 193 ft | 36 kts | 15° |
| 2026-04-19 21:28 | 64.73931 | 177.74424 | 195 ft | 31 kts | 14° |
| 2026-04-19 21:28 | 64.74135 | 177.74547 | 190 ft | 30 kts | 14° |
| 2026-04-19 21:29 | 64.74324 | 177.74662 | 196 ft | 27 kts | 14° |
| 2026-04-19 21:29 | 64.74496 | 177.74766 | 198 ft | 16 kts | 15° |
| 2026-04-19 21:29 | 64.74579 | 177.74778 | 199 ft | 9 kts | 8° |
| 2026-04-19 21:29 | 64.74593 | 177.74847 | 203 ft | 3 kts | 143° |
| 2026-04-19 21:30 | 64.74577 | 177.74832 | 201 ft | 8 kts | 197° |
| 2026-04-19 21:30 | 64.74435 | 177.74736 | 200 ft | 25 kts | 195° |
| 2026-04-19 21:30 | 64.74270 | 177.74634 | 197 ft | 24 kts | 195° |
| 2026-04-19 21:30 | 64.74107 | 177.74533 | 189 ft | 26 kts | 195° |
| 2026-04-19 21:31 | 64.73892 | 177.74400 | 189 ft | 33 kts | 194° |
| 2026-04-19 21:31 | 64.73653 | 177.74257 | 182 ft | 37 kts | 194° |
| 2026-04-19 21:31 | 64.73404 | 177.74103 | 177 ft | 37 kts | 195° |
| 2026-04-19 21:31 | 64.73151 | 177.73945 | 176 ft | 39 kts | 195° |
| 2026-04-19 21:32 | 64.72882 | 177.73779 | 169 ft | 42 kts | 195° |
| 2026-04-19 21:32 | 64.72652 | 177.73639 | 165 ft | 32 kts | 194° |
| 2026-04-19 21:32 | 64.72423 | 177.73498 | 159 ft | 36 kts | 194° |
| 2026-04-19 21:32 | 64.72191 | 177.73355 | 157 ft | 27 kts | 195° |
| 2026-04-19 21:33 | 64.72051 | 177.73272 | 157 ft | 12 kts | 192° |
| 2026-04-19 21:33 | 64.71983 | 177.73329 | 156 ft | 11 kts | 157° |
| 2026-04-19 21:33 | 64.71903 | 177.73351 | 154 ft | 12 kts | 154° |
| 2026-04-19 21:33 | 64.71849 | 177.73413 | 153 ft | 3 kts | 153° |
| 2026-04-19 21:34 | 64.71832 | 177.73434 | 153 ft | 3 kts | 153° |
| 2026-04-19 21:34 | 64.71817 | 177.73451 | 153 ft | 2 kts | 153° |
| 2026-04-19 21:34 | 64.71793 | 177.73478 | 153 ft | 9 kts | 156° |
| 2026-04-19 21:34 | 64.71735 | 177.73546 | 153 ft | 9 kts | 145° |
| 2026-04-19 21:35 | 64.71690 | 177.73633 | 153 ft | 8 kts | 140° |
| 2026-04-19 21:35 | 64.71650 | 177.73710 | 153 ft | 7 kts | 140° |
| 2026-04-19 21:35 | 64.71615 | 177.73776 | 153 ft | 6 kts | 143° |
| 2026-04-19 21:35 | 64.71581 | 177.73801 | 153 ft | 5 kts | 173° |
| 2026-04-19 21:36 | 64.71551 | 177.73803 | 153 ft | 6 kts | 179° |
| 2026-04-19 21:36 | 64.71512 | 177.73805 | 153 ft | 4 kts | 179° |
| 2026-04-19 21:36 | 64.71483 | 177.73808 | 153 ft | 6 kts | 178° |
| 2026-04-19 21:36 | 64.71455 | 177.73810 | 153 ft | 2 kts | 178° |
| 2026-04-19 21:37 | 64.71441 | 177.73812 | 153 ft | 2 kts | 178° |
| 2026-04-19 21:37 | 64.71428 | 177.73814 | 153 ft | 1 kts | 176° |
| 2026-04-19 21:37 | 64.71422 | 177.73814 | 153 ft | 0 kts | 176° |